MA74 weather

Larson's Seaplane Base
Tyngsboro, Massachusetts, United States

Public forecast

Using degrees Fahrenheit for public forecast. Weather courtesy of forecast.io.

Closest aviation weather report (METAR) to Larson's Seaplane Base

Closest report is Boire Field, 6.9 nm (12.8 km) NW. Retrieved 2020/04/02 18:56 UTC (1 hour ago):

KASH 021856Z 32014KT 10SM -RA SCT027 OVC039 07/04 A2954 RMK AO2 SLP009 P0000 T00670044

Closest aviation forecast (TAF) to Larson's Seaplane Base

Closest forecast is Laurence G Hanscom Field, 14.5 nm (26.8 km) SSE. Retrieved 2020/04/02 18:36 UTC (1 hour ago):

TAF KBED 021734Z 0218/0318 33015G30KT P6SM -RA OVC035 FM022200 33017G28KT 4SM -RA BR OVC020 FM030100 33016G24KT 4SM -RA BR OVC008 FM031400 02017G30KT 1 1/2SM -RA BR OVC008 FM031700 03017G30KT 2SM -RA BR OVC008